createdAt,value
2022-08-17T00:01:52.316Z,100.00
2022-08-17T00:04:20.361Z,100.00
2022-08-17T00:06:49.171Z,100.00
2022-08-17T00:09:19.005Z,100.00
2022-08-17T00:12:35.041Z,100.00
2022-08-17T00:14:36.086Z,100.00
2022-08-17T00:17:04.839Z,100.00
2022-08-17T00:19:32.723Z,100.00
2022-08-17T00:22:32.410Z,100.00
2022-08-17T00:24:49.870Z,100.00
2022-08-17T00:27:16.744Z,100.00
2022-08-17T00:29:45.944Z,100.00
2022-08-17T00:33:12.321Z,100.00
2022-08-17T00:35:05.900Z,100.00
2022-08-17T00:37:32.628Z,100.00
2022-08-17T00:39:59.541Z,100.00
2022-08-17T00:42:30.792Z,100.00
2022-08-17T00:44:58.155Z,100.00
2022-08-17T00:47:24.825Z,100.00
2022-08-17T00:49:51.820Z,100.00
2022-08-17T00:52:23.127Z,100.00
2022-08-17T00:54:54.029Z,100.00
2022-08-17T00:57:31.068Z,100.00
2022-08-17T01:00:03.769Z,100.00
2022-08-17T01:02:42.540Z,100.00
2022-08-17T01:05:19.026Z,100.00
2022-08-17T01:07:47.948Z,100.00
2022-08-17T01:11:00.477Z,100.00
2022-08-17T01:13:04.312Z,100.00
2022-08-17T01:15:35.192Z,100.00
2022-08-17T01:18:01.940Z,100.00
2022-08-17T01:20:28.674Z,100.00
2022-08-17T01:22:55.546Z,100.00
2022-08-17T01:25:22.575Z,100.00
2022-08-17T01:27:49.888Z,100.00
2022-08-17T01:30:58.300Z,100.00
2022-08-17T01:33:04.453Z,100.00
2022-08-17T01:35:31.550Z,100.00
2022-08-17T01:37:58.199Z,100.00
2022-08-17T01:40:32.937Z,100.00
2022-08-17T01:43:05.946Z,100.00
2022-08-17T01:45:39.190Z,100.00
2022-08-17T01:48:05.974Z,100.00
2022-08-17T01:50:37.903Z,100.00
2022-08-17T01:53:11.468Z,100.00
2022-08-17T01:55:47.227Z,100.00
2022-08-17T01:58:13.913Z,100.00
2022-08-17T02:00:46.769Z,100.00
2022-08-17T02:03:27.122Z,100.00
2022-08-17T02:05:53.797Z,100.00
2022-08-17T02:08:37.298Z,100.00
2022-08-17T02:11:12.149Z,100.00
2022-08-17T02:13:39.235Z,100.00
2022-08-17T02:16:06.085Z,100.00
2022-08-17T02:18:33.092Z,100.00
2022-08-17T02:20:59.906Z,100.00
2022-08-17T02:23:30.241Z,100.00
2022-08-17T02:25:59.304Z,100.00
2022-08-17T02:28:26.621Z,100.00
2022-08-17T02:31:02.095Z,100.00
2022-08-17T02:33:42.270Z,100.00
2022-08-17T02:36:12.729Z,100.00
2022-08-17T02:38:40.708Z,100.00
2022-08-17T02:41:08.441Z,100.00
2022-08-17T02:43:35.511Z,100.00
2022-08-17T02:46:02.162Z,100.00
2022-08-17T02:48:31.207Z,100.00
2022-08-17T02:50:59.841Z,100.00
2022-08-17T02:53:27.390Z,100.00
2022-08-17T02:55:58.583Z,100.00
2022-08-17T02:58:34.786Z,100.00
2022-08-17T03:01:07.349Z,100.00
2022-08-17T03:03:34.831Z,100.00
2022-08-17T03:06:02.258Z,100.00
2022-08-17T03:08:29.723Z,100.00
2022-08-17T03:10:57.343Z,100.00
2022-08-17T03:13:24.249Z,100.00
2022-08-17T03:15:51.010Z,100.00
2022-08-17T03:18:25.141Z,100.00
2022-08-17T03:20:58.455Z,100.00
2022-08-17T03:23:25.870Z,100.00
2022-08-17T03:25:55.061Z,100.00
2022-08-17T03:28:23.347Z,100.00
2022-08-17T03:30:51.309Z,100.00
2022-08-17T03:33:19.013Z,100.00
2022-08-17T03:35:46.065Z,100.00
2022-08-17T03:38:15.860Z,100.00
2022-08-17T03:40:58.058Z,100.00
2022-08-17T03:43:31.217Z,100.00
2022-08-17T03:46:26.917Z,100.00
2022-08-17T03:49:14.407Z,100.00
2022-08-17T03:51:59.587Z,100.00
2022-08-17T03:54:44.857Z,100.00
2022-08-17T03:57:12.303Z,100.00
2022-08-17T03:59:39.665Z,100.00
2022-08-17T04:02:23.338Z,100.00
2022-08-17T04:04:51.135Z,100.00
2022-08-17T04:07:24.561Z,100.00
2022-08-17T04:09:51.261Z,100.00
2022-08-17T04:12:21.123Z,100.00
2022-08-17T04:14:53.445Z,100.00
2022-08-17T04:17:26.393Z,100.00
2022-08-17T04:19:55.138Z,100.00
2022-08-17T04:22:33.203Z,100.00
2022-08-17T04:25:18.354Z,100.00
2022-08-17T04:27:44.952Z,100.00
2022-08-17T04:30:12.181Z,100.00
2022-08-17T04:33:19.161Z,100.00
2022-08-17T04:35:46.097Z,100.00
2022-08-17T04:38:17.601Z,100.00
2022-08-17T04:41:03.533Z,100.00
2022-08-17T04:43:32.777Z,100.00
2022-08-17T04:46:02.417Z,100.00
2022-08-17T04:48:36.522Z,100.00
2022-08-17T04:51:13.896Z,100.00
2022-08-17T04:53:42.866Z,100.00
2022-08-17T04:56:16.036Z,100.00
2022-08-17T04:58:50.073Z,100.00
2022-08-17T05:01:23.433Z,100.00
2022-08-17T05:03:51.151Z,100.00
2022-08-17T05:06:17.764Z,100.00
2022-08-17T05:08:44.380Z,100.00
2022-08-17T05:11:11.026Z,100.00
2022-08-17T05:13:37.620Z,100.00
2022-08-17T05:16:05.029Z,100.00
2022-08-17T05:18:32.495Z,100.00
2022-08-17T05:20:59.200Z,100.00
2022-08-17T05:23:35.553Z,100.00
2022-08-17T05:26:25.495Z,100.00
2022-08-17T05:28:58.518Z,100.00
2022-08-17T05:31:29.490Z,100.00
2022-08-17T05:33:56.473Z,100.00
2022-08-17T05:36:41.623Z,100.00
2022-08-17T05:39:15.868Z,100.00
2022-08-17T05:41:43.361Z,100.00
2022-08-17T05:44:10.773Z,98.65
2022-08-17T05:46:42.587Z,99.42
2022-08-17T05:49:11.047Z,98.76
2022-08-17T05:51:56.362Z,99.28
2022-08-17T05:54:31.779Z,96.40
2022-08-17T05:57:03.637Z,91.12
2022-08-17T05:59:44.808Z,82.00
2022-08-17T06:02:47.067Z,75.40
2022-08-17T06:05:45.455Z,71.11
2022-08-17T06:08:12.016Z,68.54
2022-08-17T06:11:03.007Z,62.22
2022-08-17T06:13:48.268Z,60.97
2022-08-17T06:16:33.341Z,61.25
2022-08-17T06:19:23.034Z,61.27
2022-08-17T06:21:53.683Z,57.61
2022-08-17T06:24:29.215Z,55.64
2022-08-17T06:27:10.242Z,53.54
2022-08-17T06:29:46.056Z,53.32
2022-08-17T06:32:13.579Z,56.42
2022-08-17T06:34:41.639Z,54.55
2022-08-17T06:37:15.388Z,50.42
2022-08-17T06:39:53.874Z,47.99
2022-08-17T06:42:54.813Z,45.94
2022-08-17T06:45:34.798Z,47.18
2022-08-17T06:48:15.414Z,43.63
2022-08-17T06:50:53.482Z,43.44
2022-08-17T06:53:25.835Z,40.97
2022-08-17T06:55:55.104Z,44.02
2022-08-17T06:58:29.854Z,44.72
2022-08-17T07:01:01.028Z,44.90
2022-08-17T07:04:11.466Z,46.82
2022-08-17T07:06:42.974Z,43.64
2022-08-17T07:09:35.898Z,41.79
2022-08-17T07:12:04.666Z,42.15
2022-08-17T07:14:37.044Z,42.83
2022-08-17T07:17:13.482Z,42.78
2022-08-17T07:19:44.095Z,43.14
2022-08-17T07:22:53.582Z,42.39
2022-08-17T07:25:26.256Z,43.10
2022-08-17T07:27:57.431Z,42.22
2022-08-17T07:30:27.980Z,44.24
2022-08-17T07:33:08.348Z,46.89
2022-08-17T07:35:44.278Z,46.69
2022-08-17T07:38:30.623Z,47.80
2022-08-17T07:40:57.787Z,46.32
2022-08-17T07:43:29.632Z,46.47
2022-08-17T07:46:16.288Z,46.61
2022-08-17T07:48:46.486Z,49.04
2022-08-17T07:51:42.197Z,48.22
2022-08-17T07:54:19.532Z,48.57
2022-08-17T07:56:48.076Z,47.34
2022-08-17T07:59:18.070Z,48.74
2022-08-17T08:01:58.842Z,47.96
2022-08-17T08:07:20.573Z,47.16
2022-08-17T08:10:11.124Z,48.63
2022-08-17T08:12:48.034Z,48.17
2022-08-17T08:15:20.447Z,48.83
2022-08-17T08:18:03.000Z,49.97
2022-08-17T08:20:53.312Z,49.61
2022-08-17T08:23:33.712Z,48.16
2022-08-17T08:26:26.497Z,47.38
2022-08-17T08:29:18.425Z,46.94
2022-08-17T08:32:22.532Z,46.13
2022-08-17T08:35:07.397Z,44.77
2022-08-17T08:37:58.346Z,44.20
2022-08-17T08:40:33.679Z,43.98
2022-08-17T08:43:22.661Z,45.01
2022-08-17T08:46:19.692Z,43.07
2022-08-17T08:48:58.673Z,43.54
2022-08-17T08:51:55.619Z,42.90
2022-08-17T08:54:37.250Z,43.89
2022-08-17T08:57:26.822Z,43.35
2022-08-17T09:00:13.326Z,41.95
2022-08-17T09:03:17.487Z,42.17
2022-08-17T09:06:33.615Z,42.62
2022-08-17T09:09:45.392Z,41.95
2022-08-17T09:12:25.408Z,41.69
2022-08-17T09:15:01.441Z,43.05
2022-08-17T09:17:40.132Z,42.32
2022-08-17T09:20:27.916Z,42.11
2022-08-17T09:23:07.146Z,42.16
2022-08-17T09:25:54.909Z,42.24
2022-08-17T09:28:37.305Z,42.88
2022-08-17T09:31:11.644Z,41.92
2022-08-17T09:33:45.436Z,41.30
2022-08-17T09:36:19.140Z,41.71
2022-08-17T09:39:27.756Z,41.35
2022-08-17T09:42:05.009Z,41.00
2022-08-17T09:45:12.828Z,40.76
2022-08-17T09:47:56.246Z,40.10
2022-08-17T09:51:04.456Z,39.82
2022-08-17T09:53:22.286Z,39.96
2022-08-17T09:56:26.497Z,39.94
2022-08-17T09:59:13.967Z,39.77
2022-08-17T10:01:51.952Z,38.99
2022-08-17T10:04:49.984Z,37.80
2022-08-17T10:07:19.616Z,37.46
2022-08-17T10:09:55.951Z,37.06
2022-08-17T10:12:47.011Z,37.20
2022-08-17T10:15:44.899Z,36.49
2022-08-17T10:18:49.133Z,37.07
2022-08-17T10:21:37.596Z,36.99
2022-08-17T10:24:33.263Z,36.92
2022-08-17T10:27:04.935Z,37.36
2022-08-17T10:29:50.015Z,36.73
2022-08-17T10:32:31.410Z,37.81
2022-08-17T10:35:30.236Z,38.17
2022-08-17T10:38:31.106Z,36.54
2022-08-17T10:41:15.853Z,37.45
2022-08-17T10:44:02.182Z,37.54
2022-08-17T10:46:40.278Z,37.01
2022-08-17T10:49:12.626Z,37.14
2022-08-17T10:51:42.015Z,37.29
2022-08-17T10:54:38.398Z,37.14
2022-08-17T10:57:27.481Z,36.23
2022-08-17T10:59:56.167Z,36.34
2022-08-17T11:02:31.631Z,36.29
2022-08-17T11:05:01.003Z,36.95
2022-08-17T11:08:08.105Z,37.13
2022-08-17T11:11:01.149Z,36.66
2022-08-17T11:13:52.637Z,37.00
2022-08-17T11:16:48.115Z,36.88
2022-08-17T11:19:24.910Z,36.42
2022-08-17T11:22:06.522Z,36.10
2022-08-17T11:24:39.145Z,35.62
2022-08-17T11:27:26.672Z,35.16
2022-08-17T11:30:02.160Z,35.30
2022-08-17T11:32:54.785Z,34.19
2022-08-17T11:35:21.865Z,34.96
2022-08-17T11:38:15.031Z,34.47
2022-08-17T11:40:52.234Z,34.26
2022-08-17T11:43:25.377Z,34.34
2022-08-17T11:46:02.217Z,33.91
2022-08-17T11:49:06.404Z,34.56
2022-08-17T11:52:01.327Z,33.90
2022-08-17T11:54:33.612Z,34.19
2022-08-17T11:57:26.555Z,32.99
2022-08-17T11:59:58.960Z,33.24
2022-08-17T12:02:31.640Z,32.38
2022-08-17T12:05:12.367Z,32.62
2022-08-17T12:08:05.516Z,31.85
2022-08-17T12:10:49.372Z,32.65
2022-08-17T12:13:18.453Z,33.04
2022-08-17T12:15:49.715Z,32.58
2022-08-17T12:18:46.499Z,32.01
2022-08-17T12:21:29.122Z,31.39
2022-08-17T12:24:10.314Z,31.99
2022-08-17T12:26:37.390Z,32.09
2022-08-17T12:29:18.327Z,32.28
2022-08-17T12:32:02.144Z,31.98
2022-08-17T12:34:36.594Z,32.31
2022-08-17T12:37:07.958Z,32.75
2022-08-17T12:39:34.879Z,32.85
2022-08-17T12:42:02.949Z,31.80
2022-08-17T12:44:36.226Z,32.29
2022-08-17T12:47:21.867Z,33.39
2022-08-17T12:49:52.273Z,32.54
2022-08-17T12:52:29.557Z,32.96
2022-08-17T12:55:12.341Z,33.44
2022-08-17T12:57:38.889Z,32.49
2022-08-17T13:00:22.041Z,33.02
2022-08-17T13:02:52.897Z,32.61
2022-08-17T13:05:29.964Z,33.16
2022-08-17T13:07:58.888Z,31.24
2022-08-17T13:10:33.136Z,30.47
2022-08-17T13:13:06.036Z,30.85
2022-08-17T13:15:44.730Z,31.32
2022-08-17T13:18:39.170Z,30.87
2022-08-17T13:21:23.864Z,31.25
2022-08-17T13:24:13.906Z,31.07
2022-08-17T13:27:08.069Z,32.34
2022-08-17T13:29:39.483Z,32.11
2022-08-17T13:32:12.950Z,32.18
2022-08-17T13:35:13.476Z,31.66
2022-08-17T13:37:42.633Z,31.46
2022-08-17T13:40:09.411Z,31.92
2022-08-17T13:42:48.092Z,32.35
2022-08-17T13:45:34.906Z,33.03
2022-08-17T13:48:08.850Z,33.90
2022-08-17T13:51:04.703Z,33.28
2022-08-17T13:53:47.614Z,33.19
2022-08-17T13:56:33.404Z,32.30
2022-08-17T13:59:12.515Z,32.15
2022-08-17T14:01:41.990Z,32.96
2022-08-17T14:04:14.894Z,32.56
2022-08-17T14:07:21.558Z,32.33
2022-08-17T14:09:50.601Z,32.15
2022-08-17T14:12:21.716Z,32.07
2022-08-17T14:14:49.666Z,32.32
2022-08-17T14:17:16.587Z,32.13
2022-08-17T14:19:43.256Z,32.11
2022-08-17T14:22:19.532Z,32.26
2022-08-17T14:24:46.424Z,31.38
2022-08-17T14:27:13.057Z,31.04
2022-08-17T14:29:41.275Z,31.21
2022-08-17T14:32:18.429Z,30.52
2022-08-17T14:34:46.141Z,30.90
2022-08-17T14:37:13.327Z,30.89
2022-08-17T14:39:40.199Z,31.66
2022-08-17T14:42:07.086Z,32.07
2022-08-17T14:44:33.870Z,32.02
2022-08-17T14:47:01.690Z,31.78
2022-08-17T14:49:30.296Z,31.21
2022-08-17T14:51:57.445Z,31.95
2022-08-17T14:54:33.525Z,32.37
2022-08-17T14:57:22.184Z,32.11
2022-08-17T14:59:53.386Z,32.10
2022-08-17T15:02:29.347Z,32.14
2022-08-17T15:05:04.161Z,31.90
2022-08-17T15:07:31.495Z,32.00
2022-08-17T15:10:02.355Z,32.30
2022-08-17T15:12:33.257Z,31.72
2022-08-17T15:15:01.890Z,32.27
2022-08-17T15:17:44.677Z,32.37
2022-08-17T15:20:28.097Z,32.72
2022-08-17T15:22:56.288Z,33.16
2022-08-17T15:25:28.802Z,33.32
2022-08-17T15:27:56.144Z,33.06
2022-08-17T15:30:24.243Z,33.17
2022-08-17T15:32:55.005Z,33.49
2022-08-17T15:35:28.752Z,32.89
2022-08-17T15:37:58.012Z,33.22
2022-08-17T15:40:25.162Z,33.54
2022-08-17T15:42:52.007Z,33.50
2022-08-17T15:45:24.634Z,33.30
2022-08-17T15:47:52.557Z,33.32
2022-08-17T15:50:19.609Z,33.30
2022-08-17T15:52:47.571Z,33.00
2022-08-17T15:55:15.421Z,32.79
2022-08-17T15:57:42.132Z,32.56
2022-08-17T16:00:10.110Z,32.74
2022-08-17T16:03:44.586Z,32.84
2022-08-17T16:05:28.177Z,33.41
2022-08-17T16:07:57.755Z,33.43
2022-08-17T16:10:35.151Z,33.65
2022-08-17T16:13:03.868Z,33.71
2022-08-17T16:15:31.789Z,34.19
2022-08-17T16:17:58.802Z,34.12
2022-08-17T16:20:25.528Z,34.39
2022-08-17T16:22:52.367Z,34.70
2022-08-17T16:25:21.970Z,34.68
2022-08-17T16:27:53.523Z,34.73
2022-08-17T16:30:23.203Z,35.01
2022-08-17T16:32:53.936Z,34.94
2022-08-17T16:35:22.673Z,35.56
2022-08-17T16:37:49.327Z,35.57
2022-08-17T16:40:17.369Z,35.75
2022-08-17T16:42:45.952Z,36.04
2022-08-17T16:45:16.995Z,35.60
2022-08-17T16:47:44.573Z,35.69
2022-08-17T16:50:14.104Z,35.91
2022-08-17T16:52:41.695Z,36.09
2022-08-17T16:55:13.363Z,36.29
2022-08-17T16:57:47.566Z,36.22
2022-08-17T17:00:19.297Z,36.00
2022-08-17T17:02:49.494Z,36.05
2022-08-17T17:05:38.194Z,36.67
2022-08-17T17:08:12.641Z,36.64
2022-08-17T17:10:50.785Z,36.39
2022-08-17T17:13:54.613Z,36.99
2022-08-17T17:16:34.361Z,36.88
2022-08-17T17:19:13.014Z,37.11
2022-08-17T17:22:05.058Z,37.30
2022-08-17T17:24:41.920Z,37.59
2022-08-17T17:27:14.295Z,37.65
2022-08-17T17:30:07.604Z,37.82
2022-08-17T17:32:40.776Z,37.96
2022-08-17T17:35:19.011Z,38.08
2022-08-17T17:37:46.865Z,38.34
2022-08-17T17:40:20.476Z,38.59
2022-08-17T17:42:50.387Z,38.68
2022-08-17T17:45:23.905Z,38.96
2022-08-17T17:47:50.921Z,39.34
2022-08-17T17:50:33.170Z,39.04
2022-08-17T17:53:05.266Z,39.46
2022-08-17T17:55:46.514Z,39.92
2022-08-17T17:58:21.408Z,40.27
2022-08-17T18:01:09.540Z,40.10
2022-08-17T18:03:54.953Z,40.29
2022-08-17T18:06:24.190Z,40.68
2022-08-17T18:08:59.509Z,41.10
2022-08-17T18:11:54.852Z,41.75
2022-08-17T18:14:55.562Z,42.32
2022-08-17T18:17:22.290Z,42.54
2022-08-17T18:19:49.040Z,43.10
2022-08-17T18:22:22.149Z,43.42
2022-08-17T18:24:56.078Z,43.54
2022-08-17T18:27:32.177Z,44.13
2022-08-17T18:30:07.157Z,44.09
2022-08-17T18:32:41.470Z,44.26
2022-08-17T18:35:08.008Z,44.60
2022-08-17T18:37:46.039Z,45.34
2022-08-17T18:40:21.576Z,45.39
2022-08-17T18:42:57.110Z,45.58
2022-08-17T18:45:39.607Z,46.39
2022-08-17T18:48:19.266Z,47.15
2022-08-17T18:50:46.138Z,47.71
2022-08-17T18:53:34.544Z,48.09
2022-08-17T18:56:23.267Z,48.54
2022-08-17T18:59:04.594Z,48.27
2022-08-17T19:01:59.869Z,48.64
2022-08-17T19:04:33.877Z,48.94
2022-08-17T19:07:19.343Z,49.85
2022-08-17T19:09:48.917Z,50.91
2022-08-17T19:12:49.164Z,51.62
2022-08-17T19:15:22.623Z,52.29
2022-08-17T19:18:03.203Z,52.62
2022-08-17T19:20:36.002Z,52.66
2022-08-17T19:23:11.596Z,53.55
2022-08-17T19:25:46.643Z,54.16
2022-08-17T19:28:23.074Z,54.46
2022-08-17T19:30:58.712Z,55.18
2022-08-17T19:33:26.003Z,55.40
2022-08-17T19:36:21.533Z,55.90
2022-08-17T19:39:09.721Z,56.31
2022-08-17T19:41:58.248Z,56.58
2022-08-17T19:44:53.108Z,56.67
2022-08-17T19:47:53.778Z,56.64
2022-08-17T19:50:30.676Z,57.62
2022-08-17T19:53:27.721Z,58.02
2022-08-17T19:56:16.397Z,58.78
2022-08-17T19:58:59.432Z,58.78
2022-08-17T20:01:51.296Z,58.77
2022-08-17T20:04:32.442Z,58.51
2022-08-17T20:07:24.326Z,59.03
2022-08-17T20:10:05.319Z,57.85
2022-08-17T20:12:38.062Z,57.70
2022-08-17T20:15:25.692Z,59.31
2022-08-17T20:17:53.024Z,60.54
2022-08-17T20:20:38.266Z,61.10
2022-08-17T20:23:19.804Z,61.76
2022-08-17T20:26:05.171Z,62.51
2022-08-17T20:28:35.268Z,62.07
2022-08-17T20:31:25.444Z,62.82
2022-08-17T20:33:55.469Z,63.02
2022-08-17T20:36:24.116Z,62.64
2022-08-17T20:38:59.779Z,62.18
2022-08-17T20:41:29.314Z,62.08
2022-08-17T20:43:59.058Z,61.71
2022-08-17T20:46:37.893Z,60.92
2022-08-17T20:49:18.349Z,61.29
2022-08-17T20:52:07.864Z,61.00
2022-08-17T20:54:55.097Z,61.11
2022-08-17T20:57:36.736Z,60.05
2022-08-17T21:00:27.592Z,59.31
2022-08-17T21:03:23.159Z,58.91
2022-08-17T21:06:17.219Z,59.82
2022-08-17T21:08:54.835Z,60.08
2022-08-17T21:12:02.765Z,60.36
2022-08-17T21:14:34.159Z,60.41
2022-08-17T21:17:26.353Z,60.86
2022-08-17T21:20:14.850Z,60.93
2022-08-17T21:23:20.751Z,60.73
2022-08-17T21:25:53.314Z,61.76
2022-08-17T21:29:01.070Z,62.73
2022-08-17T21:31:37.171Z,62.52
2022-08-17T21:34:16.223Z,62.45
2022-08-17T21:36:44.996Z,62.77
2022-08-17T21:39:14.301Z,62.53
2022-08-17T21:41:53.033Z,62.70
2022-08-17T21:44:21.602Z,63.41
2022-08-17T21:46:50.717Z,63.51
2022-08-17T21:49:25.488Z,64.83
2022-08-17T21:51:56.508Z,63.12
2022-08-17T21:54:29.859Z,63.89
2022-08-17T21:56:56.689Z,64.22
2022-08-17T21:59:27.279Z,65.20
2022-08-17T22:02:06.204Z,63.80
2022-08-17T22:04:40.276Z,65.84
2022-08-17T22:07:10.665Z,66.57
2022-08-17T22:09:46.624Z,67.40
2022-08-17T22:12:19.218Z,67.98
2022-08-17T22:14:53.026Z,68.52
2022-08-17T22:17:20.438Z,67.85
2022-08-17T22:19:55.015Z,67.29
2022-08-17T22:22:33.476Z,66.99
2022-08-17T22:25:07.301Z,67.67
2022-08-17T22:28:00.375Z,66.59
2022-08-17T22:30:31.641Z,64.65
2022-08-17T22:33:00.354Z,63.99
2022-08-17T22:35:34.704Z,63.54
2022-08-17T22:38:19.298Z,66.21
2022-08-17T22:41:13.773Z,67.98
2022-08-17T22:43:43.191Z,68.89
2022-08-17T22:46:12.112Z,69.00
2022-08-17T22:48:47.716Z,69.86
2022-08-17T22:51:19.216Z,69.75
2022-08-17T22:54:08.348Z,70.36
2022-08-17T22:56:53.760Z,70.51
2022-08-17T22:59:42.368Z,69.72
2022-08-17T23:02:24.754Z,70.16
2022-08-17T23:04:57.690Z,70.76
2022-08-17T23:07:24.466Z,71.11
2022-08-17T23:09:52.895Z,71.33
2022-08-17T23:12:26.525Z,71.51
2022-08-17T23:14:58.492Z,72.05
2022-08-17T23:17:25.123Z,72.17
2022-08-17T23:19:51.862Z,72.59
2022-08-17T23:22:18.529Z,71.85
2022-08-17T23:24:48.980Z,72.12
2022-08-17T23:27:16.378Z,73.33
2022-08-17T23:29:43.487Z,74.14
2022-08-17T23:32:14.854Z,74.03
2022-08-17T23:34:43.131Z,74.24
2022-08-17T23:37:11.538Z,75.34
2022-08-17T23:39:39.448Z,75.90
2022-08-17T23:42:10.405Z,76.42
2022-08-17T23:44:39.074Z,77.87
2022-08-17T23:47:07.758Z,77.48
2022-08-17T23:49:36.198Z,77.79
2022-08-17T23:52:07.132Z,78.00
2022-08-17T23:54:44.131Z,77.56
2022-08-17T23:57:17.176Z,78.20
2022-08-17T23:59:44.245Z,78.00
